Time;durP1;ratioP1;P1;durP2;ratioP2;P2;SDS_P1;SDS_P2;PMS_P1;PMS_P2;Temp;Humidity;BMP_temperature;BMP_pressure;BME280_temperature;BME280_humidity;BME280_pressure;Samples;Min_cycle;Max_cycle;Signal;HPM_P1;HPM_P2
2021/10/30 00:00:58;;;;;;;26.10;23.40;;;;;22.40;99615.00;;;;2070351;28;20222;-52
2021/10/30 00:01:59;;;;;;;26.87;24.13;;;;;22.50;99619.00;;;;2071181;28;20210;-53
2021/10/30 00:02:59;;;;;;;25.47;22.93;;;;;22.40;99618.00;;;;2061899;28;20707;-54
2021/10/30 00:04:00;;;;;;;26.13;23.40;;;;;22.50;99619.00;;;;2061911;28;20301;-56
2021/10/30 00:05:00;;;;;;;26.00;23.33;;;;;22.40;99621.00;;;;2071084;28;20218;-54
2021/10/30 00:06:00;;;;;;;23.67;21.37;;;;;22.40;99619.00;;;;2070977;28;20218;-55
2021/10/30 00:07:01;;;;;;;23.93;21.63;;;;;22.40;99606.00;;;;2076716;28;20296;-53
2021/10/30 00:08:01;;;;;;;23.50;21.10;;;;;22.40;99609.00;;;;2078937;28;20866;-51
2021/10/30 00:09:02;;;;;;;24.63;22.10;;;;;22.40;99613.00;;;;2071312;28;20268;-53
2021/10/30 00:10:03;;;;;;;24.63;22.20;;;;;22.40;99604.00;;;;2074665;28;20694;-55
2021/10/30 00:11:04;;;;;;;22.83;20.60;;;;;22.40;99608.00;;;;2079667;28;20267;-54
2021/10/30 00:12:04;;;;;;;23.00;20.67;;;;;22.40;99609.00;;;;2079221;28;20225;-55
2021/10/30 00:13:05;;;;;;;24.27;21.97;;;;;22.40;99613.00;;;;2079289;28;20251;-54
2021/10/30 00:14:05;;;;;;;24.20;21.70;;;;;22.40;99610.00;;;;2079399;28;20296;-53
2021/10/30 00:15:06;;;;;;;21.87;19.77;;;;;22.40;99604.00;;;;2079370;28;20218;-53
2021/10/30 00:16:06;;;;;;;21.48;19.45;;;;;22.40;99609.00;;;;2078560;28;20757;-53
2021/10/30 00:17:07;;;;;;;23.80;21.40;;;;;22.40;99615.00;;;;2078669;28;20228;-52
2021/10/30 00:18:08;;;;;;;22.47;20.17;;;;;22.40;99620.00;;;;2078791;28;20214;-53
2021/10/30 00:19:08;;;;;;;22.17;19.90;;;;;22.40;99622.00;;;;2077716;28;20221;-53
2021/10/30 00:20:09;;;;;;;20.73;18.83;;;;;22.40;99624.00;;;;2079084;28;20880;-55
2021/10/30 00:21:09;;;;;;;20.67;18.77;;;;;22.40;99627.00;;;;2075758;28;20575;-55
2021/10/30 00:22:10;;;;;;;20.83;18.80;;;;;22.40;99628.00;;;;2074456;28;21201;-55
2021/10/30 00:23:10;;;;;;;20.33;18.33;;;;;22.40;99626.00;;;;2072703;28;20268;-53
2021/10/30 00:24:10;;;;;;;19.87;17.87;;;;;22.40;99629.00;;;;2072246;28;20214;-53
2021/10/30 00:25:11;;;;;;;20.80;18.70;;;;;22.40;99622.00;;;;2071200;28;20217;-54
2021/10/30 00:26:11;;;;;;;19.57;17.63;;;;;22.40;99625.00;;;;2071169;28;20579;-53
2021/10/30 00:27:13;;;;;;;19.93;18.03;;;;;22.40;99628.00;;;;2071196;28;20293;-53
2021/10/30 00:28:13;;;;;;;19.42;17.58;;;;;22.40;99617.00;;;;2074809;28;20220;-55
2021/10/30 00:29:13;;;;;;;20.23;18.10;;;;;22.40;99618.00;;;;2078316;28;20279;-54
2021/10/30 00:30:14;;;;;;;18.77;16.90;;;;;22.40;99623.00;;;;2077483;28;20209;-54
2021/10/30 00:31:14;;;;;;;19.83;17.93;;;;;22.40;99628.00;;;;2078826;28;20214;-54
2021/10/30 00:32:15;;;;;;;18.90;17.00;;;;;22.40;99619.00;;;;2079112;28;20208;-55
2021/10/30 00:33:15;;;;;;;20.20;18.20;;;;;22.40;99623.00;;;;2079524;28;20233;-53
2021/10/30 00:34:15;;;;;;;19.47;17.37;;;;;22.40;99619.00;;;;2079254;28;20813;-53
2021/10/30 00:35:16;;;;;;;19.80;17.90;;;;;22.40;99619.00;;;;2079421;28;20613;-53
2021/10/30 00:36:16;;;;;;;18.93;17.13;;;;;22.40;99626.00;;;;2079305;28;20202;-54
2021/10/30 00:37:16;;;;;;;18.77;16.97;;;;;22.40;99612.00;;;;2078554;28;20206;-53
2021/10/30 00:38:17;;;;;;;18.30;16.50;;;;;22.40;99608.00;;;;2077592;28;20210;-54
2021/10/30 00:39:17;;;;;;;17.67;15.90;;;;;22.30;99614.00;;;;2077889;28;20213;-54
2021/10/30 00:40:18;;;;;;;17.17;15.47;;;;;22.30;99610.00;;;;2079121;28;20222;-53
2021/10/30 00:41:19;;;;;;;17.17;15.43;;;;;22.30;99608.00;;;;2078856;28;20236;-54
2021/10/30 00:42:19;;;;;;;17.40;15.70;;;;;22.40;99612.00;;;;2072195;28;20731;-55
2021/10/30 00:43:20;;;;;;;17.50;15.80;;;;;22.30;99603.00;;;;2070396;28;20453;-53
2021/10/30 00:44:20;;;;;;;17.77;16.10;;;;;22.40;99603.00;;;;2070844;28;20210;-53
2021/10/30 00:45:20;;;;;;;16.70;15.03;;;;;22.40;99594.00;;;;2070865;28;20268;-55
2021/10/30 00:46:21;;;;;;;17.17;15.50;;;;;22.40;99590.00;;;;2079340;28;20213;-55
2021/10/30 00:47:21;;;;;;;16.80;15.13;;;;;22.30;99581.00;;;;2074473;28;20214;-55
2021/10/30 00:48:22;;;;;;;16.57;14.97;;;;;22.40;99581.00;;;;2070694;28;20214;-54
2021/10/30 00:49:24;;;;;;;16.13;14.53;;;;;22.30;99580.00;;;;2069870;28;20237;-53
2021/10/30 00:50:25;;;;;;;15.98;14.48;;;;;22.30;99574.00;;;;2071391;28;20594;-52
2021/10/30 00:51:25;;;;;;;15.40;13.80;;;;;22.40;99565.00;;;;2072681;28;20218;-52
2021/10/30 00:52:26;;;;;;;17.20;15.50;;;;;22.30;99587.00;;;;2071890;28;20784;-54
2021/10/30 00:53:31;;;;;;;16.20;14.57;;;;;22.40;99592.00;;;;2071554;28;20214;-53
2021/10/30 00:54:31;;;;;;;15.70;14.27;;;;;22.40;99593.00;;;;2070721;28;20269;-54
2021/10/30 00:55:32;;;;;;;15.53;13.93;;;;;22.30;99595.00;;;;2070394;28;20226;-54
2021/10/30 00:56:32;;;;;;;15.90;14.40;;;;;22.30;99594.00;;;;2070333;28;20226;-53
2021/10/30 00:57:32;;;;;;;14.53;13.20;;;;;22.30;99591.00;;;;2070338;28;20218;-52
2021/10/30 00:58:34;;;;;;;13.80;12.50;;;;;22.30;99596.00;;;;2061975;28;20307;-54
2021/10/30 00:59:36;;;;;;;13.85;12.55;;;;;22.30;99594.00;;;;2068704;28;20221;-54
2021/10/30 01:00:36;;;;;;;15.02;13.63;;;;;22.30;99594.00;;;;2070984;28;20222;-54
2021/10/30 01:01:37;;;;;;;15.27;13.70;;;;;22.30;99591.00;;;;2071109;28;20237;-53
2021/10/30 01:02:37;;;;;;;14.90;13.50;;;;;22.30;99588.00;;;;2075787;28;20218;-53
2021/10/30 01:03:38;;;;;;;15.60;14.00;;;;;22.30;99582.00;;;;2079056;28;20992;-53
2021/10/30 01:04:38;;;;;;;14.50;13.10;;;;;22.30;99573.00;;;;2069948;28;20214;-53
2021/10/30 01:05:39;;;;;;;13.53;12.20;;;;;22.30;99568.00;;;;2064100;28;20229;-53
2021/10/30 01:06:42;;;;;;;13.73;12.35;;;;;22.30;99563.00;;;;2070143;28;20305;-54
2021/10/30 01:07:42;;;;;;;13.70;12.40;;;;;22.30;99557.00;;;;2070075;28;20241;-54
2021/10/30 01:08:42;;;;;;;13.80;12.53;;;;;22.30;99562.00;;;;2069670;28;20563;-55
2021/10/30 01:09:43;;;;;;;13.60;12.30;;;;;22.30;99560.00;;;;2069960;28;20280;-52
2021/10/30 01:10:43;;;;;;;13.20;12.00;;;;;22.30;99564.00;;;;2066818;28;20836;-52
2021/10/30 01:11:43;;;;;;;12.67;11.37;;;;;22.30;99571.00;;;;2070320;28;20210;-52
2021/10/30 01:12:44;;;;;;;14.30;12.90;;;;;22.30;99590.00;;;;2069434;28;20264;-56
2021/10/30 01:13:44;;;;;;;13.40;12.10;;;;;22.30;99573.00;;;;2070253;28;20210;-56
2021/10/30 01:14:45;;;;;;;12.80;11.60;;;;;22.30;99568.00;;;;2061800;28;20637;-53
2021/10/30 01:15:45;;;;;;;12.37;11.27;;;;;22.30;99569.00;;;;2070058;28;20206;-51
2021/10/30 01:16:47;;;;;;;12.60;11.37;;;;;22.30;99562.00;;;;2070223;28;20213;-53
2021/10/30 01:17:47;;;;;;;12.30;11.02;;;;;22.30;99563.00;;;;2074979;28;20274;-52
2021/10/30 01:18:48;;;;;;;14.07;12.77;;;;;22.30;99565.00;;;;2078239;28;20370;-52
2021/10/30 01:19:51;;;;;;;12.83;11.53;;;;;22.30;99561.00;;;;2078991;28;20206;-55
2021/10/30 01:20:52;;;;;;;11.85;10.75;;;;;22.30;99568.00;;;;2076241;28;20264;-53
2021/10/30 01:21:52;;;;;;;12.10;11.00;;;;;22.30;99560.00;;;;2074370;28;20496;-53
2021/10/30 01:22:59;;;;;;;12.27;11.10;;;;;22.30;99553.00;;;;2071968;28;20536;-54
2021/10/30 01:24:01;;;;;;;11.40;10.40;;;;;22.30;99563.00;;;;2071519;28;20206;-54
2021/10/30 01:25:01;;;;;;;11.98;10.77;;;;;22.30;99553.00;;;;2070698;28;20220;-54
2021/10/30 01:26:01;;;;;;;11.30;10.20;;;;;22.30;99565.00;;;;2076332;28;20218;-54
2021/10/30 01:27:02;;;;;;;11.63;10.43;;;;;22.30;99569.00;;;;2078739;28;20814;-52
2021/10/30 01:28:02;;;;;;;11.30;10.20;;;;;22.10;99563.00;;;;2078721;28;20216;-52
2021/10/30 01:29:03;;;;;;;11.70;10.60;;;;;22.30;99568.00;;;;2077778;28;20233;-55
2021/10/30 01:30:04;;;;;;;12.20;11.03;;;;;22.30;99570.00;;;;2078753;28;20224;-53
2021/10/30 01:31:04;;;;;;;11.63;10.50;;;;;22.10;99572.00;;;;2078596;28;20457;-53
2021/10/30 01:32:05;;;;;;;11.60;10.50;;;;;22.30;99568.00;;;;2074259;28;20468;-54
2021/10/30 01:33:06;;;;;;;10.67;9.67;;;;;22.30;99552.00;;;;2070271;28;20694;-52
2021/10/30 01:34:07;;;;;;;11.23;10.13;;;;;22.30;99550.00;;;;2070819;28;21156;-53
2021/10/30 01:35:08;;;;;;;10.32;9.43;;;;;22.30;99550.00;;;;2070643;28;20271;-53
2021/10/30 01:36:09;;;;;;;11.17;10.07;;;;;22.30;99548.00;;;;2069138;28;20217;-53
2021/10/30 01:37:10;;;;;;;9.90;8.93;;;;;22.30;99547.00;;;;2069497;28;20508;-54
2021/10/30 01:38:11;;;;;;;10.30;9.40;;;;;22.30;99548.00;;;;2070128;28;20473;-54
2021/10/30 01:39:12;;;;;;;11.00;10.00;;;;;22.30;99543.00;;;;2073021;28;20452;-53
2021/10/30 01:40:12;;;;;;;9.93;9.03;;;;;22.30;99541.00;;;;2078256;28;20213;-54
2021/10/30 01:41:13;;;;;;;10.20;9.30;;;;;22.30;99546.00;;;;2078005;28;20217;-52
2021/10/30 01:42:13;;;;;;;10.13;9.23;;;;;22.30;99537.00;;;;2076264;28;20213;-53
2021/10/30 01:43:14;;;;;;;9.53;8.63;;;;;22.20;99530.00;;;;2070948;28;20210;-53
2021/10/30 01:44:14;;;;;;;9.43;8.53;;;;;22.30;99532.00;;;;2070096;28;20776;-53
2021/10/30 01:45:15;;;;;;;9.83;8.83;;;;;22.30;99533.00;;;;2069826;28;20265;-52
2021/10/30 01:46:17;;;;;;;10.27;9.33;;;;;22.30;99534.00;;;;2070578;28;20206;-54
2021/10/30 01:47:17;;;;;;;10.27;9.38;;;;;22.30;99530.00;;;;2074719;28;20240;-54
2021/10/30 01:48:18;;;;;;;10.20;9.30;;;;;22.20;99534.00;;;;2078637;28;20229;-55
2021/10/30 01:49:18;;;;;;;9.87;8.97;;;;;22.20;99535.00;;;;2074975;28;20298;-54
2021/10/30 01:50:19;;;;;;;9.67;8.70;;;;;22.20;99524.00;;;;2086368;28;20232;-52
2021/10/30 01:51:23;;;;;;;10.70;9.67;;;;;22.30;99525.00;;;;2072380;28;20214;-55
2021/10/30 01:52:23;;;;;;;9.35;8.50;;;;;22.20;99531.00;;;;2070690;28;20214;-52
2021/10/30 01:53:23;;;;;;;9.77;8.87;;;;;22.20;99519.00;;;;2071857;28;21312;-55
2021/10/30 01:54:24;;;;;;;9.07;8.20;;;;;22.20;99519.00;;;;2070402;28;20218;-52
2021/10/30 01:55:25;;;;;;;8.63;7.83;;;;;22.20;99509.00;;;;2070717;28;20253;-54
2021/10/30 01:56:25;;;;;;;8.00;7.30;;;;;22.20;99511.00;;;;2069974;28;20256;-53
2021/10/30 01:57:26;;;;;;;8.90;8.00;;;;;22.30;99510.00;;;;2070007;28;20214;-55
2021/10/30 01:58:26;;;;;;;8.63;7.93;;;;;22.30;99504.00;;;;2070485;28;20221;-54
2021/10/30 01:59:26;;;;;;;8.10;7.40;;;;;22.20;99509.00;;;;2069190;28;20714;-51
2021/10/30 02:00:27;;;;;;;9.00;8.20;;;;;22.20;99505.00;;;;2070360;28;20621;-53
2021/10/30 02:01:27;;;;;;;9.20;8.30;;;;;22.20;99500.00;;;;2070394;28;20214;-52
2021/10/30 02:02:27;;;;;;;8.30;7.60;;;;;22.20;99504.00;;;;2070135;28;20394;-52
2021/10/30 02:03:30;;;;;;;9.20;8.20;;;;;22.20;99502.00;;;;2074708;28;20224;-54
2021/10/30 02:04:31;;;;;;;8.77;7.88;;;;;22.20;99502.00;;;;2078446;28;20237;-54
2021/10/30 02:05:31;;;;;;;8.20;7.50;;;;;22.20;99503.00;;;;2078703;28;20218;-53
2021/10/30 02:06:31;;;;;;;7.93;7.10;;;;;22.20;99497.00;;;;2078507;28;20275;-53
2021/10/30 02:07:32;;;;;;;8.40;7.50;;;;;22.20;99499.00;;;;2078224;28;20222;-55
2021/10/30 02:08:33;;;;;;;9.20;8.40;;;;;22.20;99493.00;;;;2077620;28;20801;-53
2021/10/30 02:09:35;;;;;;;7.93;7.20;;;;;22.20;99494.00;;;;2076674;28;20209;-51
2021/10/30 02:10:35;;;;;;;7.97;7.28;;;;;22.20;99494.00;;;;2077935;28;20312;-53
2021/10/30 02:11:36;;;;;;;8.13;7.43;;;;;22.20;99495.00;;;;2078030;28;20243;-54
2021/10/30 02:12:36;;;;;;;8.30;7.50;;;;;22.20;99481.00;;;;2077402;28;20697;-54
2021/10/30 02:13:36;;;;;;;7.83;7.20;;;;;22.20;99473.00;;;;2078234;28;20590;-54
2021/10/30 02:14:37;;;;;;;8.20;7.40;;;;;22.20;99483.00;;;;2077885;28;20216;-53
2021/10/30 02:15:38;;;;;;;7.30;6.70;;;;;22.20;99479.00;;;;2078110;28;20712;-52
2021/10/30 02:16:38;;;;;;;7.93;7.23;;;;;22.20;99481.00;;;;2075110;28;20595;-52
2021/10/30 02:17:38;;;;;;;7.60;6.93;;;;;22.20;99484.00;;;;2069569;28;20218;-55
2021/10/30 02:18:40;;;;;;;8.30;7.10;;;;;22.20;99469.00;;;;2070018;28;20213;-55
2021/10/30 02:19:40;;;;;;;8.30;7.50;;;;;22.20;99470.00;;;;2068787;28;21014;-55
2021/10/30 02:20:41;;;;;;;7.77;7.07;;;;;22.20;99462.00;;;;2071473;28;20241;-54
2021/10/30 02:21:41;;;;;;;7.40;6.70;;;;;22.20;99469.00;;;;2072795;28;20714;-54
2021/10/30 02:22:42;;;;;;;7.40;6.80;;;;;22.20;99467.00;;;;2075927;28;20300;-54
2021/10/30 02:23:42;;;;;;;8.10;7.23;;;;;22.20;99468.00;;;;2069812;28;20206;-52
2021/10/30 02:24:42;;;;;;;7.90;7.20;;;;;22.20;99462.00;;;;2069998;28;20766;-54
2021/10/30 02:25:43;;;;;;;7.20;6.60;;;;;22.20;99460.00;;;;2069704;28;20614;-54
2021/10/30 02:26:43;;;;;;;7.23;6.53;;;;;22.20;99465.00;;;;2069688;28;20257;-53
2021/10/30 02:27:43;;;;;;;7.20;6.50;;;;;22.20;99458.00;;;;2069914;28;20855;-52
2021/10/30 02:28:44;;;;;;;7.40;6.70;;;;;22.20;99458.00;;;;2070203;28;20228;-52
2021/10/30 02:29:44;;;;;;;7.27;6.57;;;;;22.20;99454.00;;;;2077737;28;20253;-55
2021/10/30 02:30:45;;;;;;;7.00;6.30;;;;;22.20;99455.00;;;;2078175;28;20300;-54
2021/10/30 02:31:45;;;;;;;7.57;6.80;;;;;22.20;99460.00;;;;2077783;28;20217;-55
2021/10/30 02:32:45;;;;;;;7.00;6.40;;;;;22.20;99457.00;;;;2077886;28;20224;-54
2021/10/30 02:33:46;;;;;;;7.00;6.30;;;;;22.20;99459.00;;;;2078630;28;20631;-53
2021/10/30 02:34:46;;;;;;;7.00;6.40;;;;;22.20;99465.00;;;;2078021;28;20214;-52
2021/10/30 02:35:47;;;;;;;6.97;6.37;;;;;22.20;99464.00;;;;2078439;28;20680;-51
2021/10/30 02:36:47;;;;;;;7.60;6.90;;;;;22.20;99459.00;;;;2078579;28;20214;-54
2021/10/30 02:37:47;;;;;;;6.77;6.17;;;;;22.20;99464.00;;;;2078229;28;20271;-53
2021/10/30 02:38:48;;;;;;;7.67;6.90;;;;;22.20;99457.00;;;;2077701;28;20216;-53
2021/10/30 02:39:49;;;;;;;7.05;6.35;;;;;22.20;99462.00;;;;2078487;28;20797;-54
2021/10/30 02:40:49;;;;;;;6.13;5.63;;;;;22.20;99450.00;;;;2078617;28;20312;-54
2021/10/30 02:41:49;;;;;;;6.83;6.23;;;;;22.10;99452.00;;;;2078444;28;20221;-53
2021/10/30 02:42:50;;;;;;;6.53;5.70;;;;;22.20;99446.00;;;;2078470;28;20316;-54
2021/10/30 02:43:50;;;;;;;6.50;5.90;;;;;22.10;99449.00;;;;2078540;28;20217;-51
2021/10/30 02:44:50;;;;;;;6.57;5.97;;;;;22.10;99452.00;;;;2078424;28;20221;-53
2021/10/30 02:45:51;;;;;;;6.60;6.10;;;;;22.10;99453.00;;;;2078221;28;20217;-53
2021/10/30 02:46:51;;;;;;;7.93;6.20;;;;;22.10;99455.00;;;;2078446;28;20267;-55
2021/10/30 02:47:52;;;;;;;6.00;5.50;;;;;22.10;99445.00;;;;2078233;28;20209;-54
2021/10/30 02:48:52;;;;;;;6.73;5.90;;;;;22.10;99448.00;;;;2076029;28;20217;-54
2021/10/30 02:49:52;;;;;;;6.53;5.93;;;;;22.10;99448.00;;;;2078397;28;20214;-52
2021/10/30 02:50:53;;;;;;;6.13;5.53;;;;;22.10;99438.00;;;;2075728;28;20280;-53
2021/10/30 02:51:54;;;;;;;6.30;5.70;;;;;22.10;99427.00;;;;2068976;28;20221;-54
2021/10/30 02:52:55;;;;;;;6.22;5.72;;;;;22.10;99432.00;;;;2067277;28;20533;-53
2021/10/30 02:53:56;;;;;;;6.28;5.63;;;;;22.10;99439.00;;;;2070559;28;20210;-54
2021/10/30 02:54:56;;;;;;;5.87;5.37;;;;;22.10;99434.00;;;;2070355;28;20210;-55
2021/10/30 02:55:56;;;;;;;6.30;5.70;;;;;22.10;99430.00;;;;2070261;28;20268;-52
2021/10/30 02:56:57;;;;;;;6.00;5.50;;;;;22.10;99439.00;;;;2070391;28;20300;-52
2021/10/30 02:57:57;;;;;;;6.83;6.13;;;;;22.10;99431.00;;;;2072548;28;20683;-54
2021/10/30 02:58:57;;;;;;;5.60;5.10;;;;;22.10;99435.00;;;;2077196;28;20588;-53
2021/10/30 02:59:58;;;;;;;5.27;4.77;;;;;22.10;99435.00;;;;2078325;28;20232;-54
2021/10/30 03:00:59;;;;;;;5.80;5.30;;;;;22.10;99432.00;;;;2078760;28;20316;-52
2021/10/30 03:01:59;;;;;;;5.57;5.07;;;;;22.10;99423.00;;;;2078056;28;20452;-55
2021/10/30 03:03:00;;;;;;;6.33;5.73;;;;;22.10;99426.00;;;;2078041;28;20222;-53
2021/10/30 03:04:00;;;;;;;5.63;5.13;;;;;22.10;99427.00;;;;2078451;28;20225;-54
2021/10/30 03:05:00;;;;;;;5.93;5.33;;;;;22.10;99419.00;;;;2078397;28;20209;-52
2021/10/30 03:06:01;;;;;;;6.10;5.60;;;;;22.10;99416.00;;;;2078403;28;20283;-55
2021/10/30 03:07:01;;;;;;;5.70;5.20;;;;;22.10;99415.00;;;;2077577;28;20229;-53
2021/10/30 03:08:01;;;;;;;6.07;5.50;;;;;22.10;99418.00;;;;2078230;28;20571;-53
2021/10/30 03:09:02;;;;;;;5.73;5.30;;;;;22.10;99414.00;;;;2077108;28;20228;-55
2021/10/30 03:10:03;;;;;;;5.17;4.77;;;;;22.10;99419.00;;;;2078402;28;20213;-52
2021/10/30 03:11:03;;;;;;;5.50;5.00;;;;;22.10;99413.00;;;;2078749;28;20530;-52
2021/10/30 03:12:04;;;;;;;5.83;5.33;;;;;22.10;99417.00;;;;2080117;28;20201;-52
2021/10/30 03:13:04;;;;;;;6.07;5.57;;;;;22.10;99406.00;;;;2080030;28;20686;-55
2021/10/30 03:14:05;;;;;;;5.40;4.90;;;;;22.10;99410.00;;;;2079812;28;20255;-52
2021/10/30 03:15:05;;;;;;;5.53;5.13;;;;;22.10;99418.00;;;;2079639;28;20212;-53
2021/10/30 03:16:06;;;;;;;5.93;5.40;;;;;22.10;99418.00;;;;2079771;28;20212;-52
2021/10/30 03:17:06;;;;;;;5.10;4.70;;;;;22.10;99413.00;;;;2079918;28;20284;-53
2021/10/30 03:18:07;;;;;;;5.20;4.80;;;;;22.10;99413.00;;;;2076423;28;20221;-54
2021/10/30 03:19:07;;;;;;;5.30;4.90;;;;;22.10;99417.00;;;;2072612;28;20706;-53
2021/10/30 03:20:08;;;;;;;4.90;4.50;;;;;22.10;99414.00;;;;2073805;28;20582;-53
2021/10/30 03:21:08;;;;;;;5.60;5.10;;;;;22.10;99404.00;;;;2073366;28;20210;-55
2021/10/30 03:22:09;;;;;;;5.20;4.70;;;;;21.90;99406.00;;;;2072997;28;20457;-53
2021/10/30 03:23:09;;;;;;;5.67;5.17;;;;;22.10;99407.00;;;;2071764;28;20233;-54
2021/10/30 03:24:09;;;;;;;5.13;4.63;;;;;22.10;99398.00;;;;2071174;28;20207;-54
2021/10/30 03:25:10;;;;;;;5.60;5.10;;;;;22.10;99401.00;;;;2073597;28;20220;-54
2021/10/30 03:26:10;;;;;;;5.00;4.60;;;;;22.10;99401.00;;;;2076493;28;20225;-54
2021/10/30 03:27:10;;;;;;;5.37;4.87;;;;;22.10;99409.00;;;;2074824;28;20213;-54
2021/10/30 03:28:11;;;;;;;5.03;4.53;;;;;22.10;99403.00;;;;2074424;28;20218;-53
2021/10/30 03:29:11;;;;;;;6.00;5.40;;;;;22.10;99415.00;;;;2070536;28;20210;-53
2021/10/30 03:30:12;;;;;;;5.20;4.70;;;;;22.10;99406.00;;;;2071568;28;20301;-53
2021/10/30 03:31:12;;;;;;;5.40;4.90;;;;;22.00;99415.00;;;;2070569;28;20250;-52
2021/10/30 03:32:12;;;;;;;4.90;4.50;;;;;22.10;99410.00;;;;2071676;28;20627;-53
2021/10/30 03:33:13;;;;;;;5.07;4.67;;;;;22.00;99410.00;;;;2071835;28;20320;-55
2021/10/30 03:34:13;;;;;;;5.10;4.57;;;;;22.10;99407.00;;;;2071804;28;20210;-53
2021/10/30 03:35:13;;;;;;;4.57;4.17;;;;;22.00;99396.00;;;;2071255;28;20206;-52
2021/10/30 03:36:14;;;;;;;4.97;4.47;;;;;22.10;99400.00;;;;2071652;28;20253;-52
2021/10/30 03:37:15;;;;;;;4.93;4.50;;;;;22.10;99407.00;;;;2076110;28;20292;-54
2021/10/30 03:38:15;;;;;;;5.47;4.97;;;;;22.10;99403.00;;;;2079887;28;20209;-55
2021/10/30 03:39:15;;;;;;;4.83;4.43;;;;;22.00;99411.00;;;;2078542;28;20210;-54
2021/10/30 03:40:16;;;;;;;4.77;4.37;;;;;22.00;99407.00;;;;2079529;28;20712;-54
2021/10/30 03:41:16;;;;;;;5.20;4.70;;;;;22.10;99412.00;;;;2079830;28;20297;-53
2021/10/30 03:42:16;;;;;;;5.20;4.80;;;;;22.00;99404.00;;;;2079702;28;20221;-54
2021/10/30 03:43:17;;;;;;;4.73;4.33;;;;;22.00;99410.00;;;;2079861;28;20901;-52
2021/10/30 03:44:17;;;;;;;5.17;4.67;;;;;22.10;99407.00;;;;2079923;28;20256;-54
2021/10/30 03:45:17;;;;;;;4.70;4.27;;;;;22.00;99418.00;;;;2079244;28;20209;-53
2021/10/30 03:46:18;;;;;;;5.10;4.70;;;;;22.00;99407.00;;;;2079849;28;20226;-53
2021/10/30 03:47:18;;;;;;;4.33;3.67;;;;;22.00;99414.00;;;;2079635;28;20229;-53
2021/10/30 03:48:20;;;;;;;4.70;4.33;;;;;22.00;99406.00;;;;2079735;28;20268;-54
2021/10/30 03:49:21;;;;;;;4.45;4.15;;;;;22.10;99414.00;;;;2076277;28;20225;-55
2021/10/30 03:50:21;;;;;;;4.57;4.17;;;;;22.00;99409.00;;;;2071516;28;20313;-54
2021/10/30 03:51:21;;;;;;;4.43;4.13;;;;;22.00;99409.00;;;;2071575;28;20221;-55
2021/10/30 03:52:22;;;;;;;4.83;4.43;;;;;22.00;99408.00;;;;2071359;28;20218;-53
2021/10/30 03:53:22;;;;;;;4.50;4.10;;;;;22.00;99404.00;;;;2071513;28;20214;-54
2021/10/30 03:54:23;;;;;;;4.67;4.33;;;;;22.00;99403.00;;;;2071691;28;20638;-52
2021/10/30 03:55:23;;;;;;;4.30;3.90;;;;;22.00;99401.00;;;;2076522;28;20217;-52
2021/10/30 03:56:23;;;;;;;4.30;4.00;;;;;22.00;99404.00;;;;2074545;28;20230;-54
2021/10/30 03:57:24;;;;;;;4.40;4.00;;;;;22.00;99409.00;;;;2073959;28;20811;-54
2021/10/30 03:58:24;;;;;;;5.20;4.67;;;;;22.00;99404.00;;;;2073083;28;20586;-51
2021/10/30 03:59:24;;;;;;;4.40;4.00;;;;;22.00;99400.00;;;;2069511;28;20312;-53
2021/10/30 04:00:25;;;;;;;4.67;4.27;;;;;22.00;99406.00;;;;2070969;28;20940;-53
2021/10/30 04:01:25;;;;;;;4.27;3.87;;;;;22.00;99402.00;;;;2071267;28;20717;-53
2021/10/30 04:02:25;;;;;;;4.23;3.83;;;;;22.00;99398.00;;;;2067263;28;20248;-51
2021/10/30 04:03:26;;;;;;;4.47;4.07;;;;;22.00;99392.00;;;;2078106;28;20221;-54
2021/10/30 04:04:26;;;;;;;5.10;4.70;;;;;22.00;99389.00;;;;2077323;28;20612;-52
2021/10/30 04:05:26;;;;;;;4.50;4.10;;;;;22.00;99395.00;;;;2079369;28;20217;-51
2021/10/30 04:06:27;;;;;;;4.20;3.90;;;;;22.00;99400.00;;;;2079624;28;20220;-52
2021/10/30 04:07:27;;;;;;;4.70;4.30;;;;;22.00;99395.00;;;;2079438;28;20229;-53
2021/10/30 04:08:28;;;;;;;4.20;3.83;;;;;22.00;99399.00;;;;2079462;28;20256;-52
2021/10/30 04:09:28;;;;;;;4.20;3.80;;;;;22.00;99397.00;;;;2078288;28;20217;-53
2021/10/30 04:10:29;;;;;;;4.60;4.20;;;;;22.00;99400.00;;;;2079383;28;20460;-52
2021/10/30 04:11:29;;;;;;;4.37;4.07;;;;;22.00;99391.00;;;;2079491;28;20265;-54
2021/10/30 04:12:29;;;;;;;4.17;3.77;;;;;22.00;99404.00;;;;2079582;28;20260;-53
2021/10/30 04:13:30;;;;;;;4.53;4.03;;;;;22.00;99408.00;;;;2079376;28;20213;-55
2021/10/30 04:14:31;;;;;;;4.47;4.07;;;;;22.00;99401.00;;;;2079446;28;20217;-54
2021/10/30 04:15:31;;;;;;;3.70;3.40;;;;;22.00;99400.00;;;;2078927;28;20805;-54
2021/10/30 04:16:34;;;;;;;4.93;4.53;;;;;22.00;99397.00;;;;2078639;28;20329;-53
2021/10/30 04:17:34;;;;;;;4.35;3.95;;;;;22.00;99393.00;;;;2078875;28;20271;-53
2021/10/30 04:18:35;;;;;;;4.23;3.87;;;;;22.00;99404.00;;;;2079169;28;20905;-53
2021/10/30 04:19:35;;;;;;;4.03;3.73;;;;;22.00;99404.00;;;;2073346;28;20249;-53
2021/10/30 04:20:36;;;;;;;4.90;4.50;;;;;22.00;99401.00;;;;2071390;28;20229;-51
2021/10/30 04:21:36;;;;;;;5.00;4.50;;;;;22.00;99405.00;;;;2071297;28;20218;-54
2021/10/30 04:22:37;;;;;;;4.60;4.20;;;;;22.00;99405.00;;;;2071068;28;20229;-53
2021/10/30 04:23:37;;;;;;;4.47;4.10;;;;;22.00;99397.00;;;;2070772;28;20221;-52
2021/10/30 04:24:38;;;;;;;4.07;3.77;;;;;22.00;99404.00;;;;2070606;28;20275;-52
2021/10/30 04:25:39;;;;;;;4.33;3.80;;;;;22.00;99408.00;;;;2076603;28;20462;-53
2021/10/30 04:26:40;;;;;;;4.97;4.53;;;;;22.00;99403.00;;;;2074098;28;20221;-54
2021/10/30 04:27:40;;;;;;;3.90;3.60;;;;;22.00;99397.00;;;;2072857;28;20214;-54
2021/10/30 04:28:41;;;;;;;4.50;4.10;;;;;22.00;99406.00;;;;2078933;28;20215;-55
2021/10/30 04:29:41;;;;;;;4.20;3.80;;;;;22.00;99397.00;;;;2078401;28;20222;-54
2021/10/30 04:30:41;;;;;;;4.13;3.50;;;;;22.00;99399.00;;;;2079425;28;20213;-52
2021/10/30 04:31:43;;;;;;;4.20;3.90;;;;;22.00;99404.00;;;;2078285;28;20209;-51
2021/10/30 04:32:44;;;;;;;3.92;3.63;;;;;21.90;99392.00;;;;2078430;28;20220;-53
2021/10/30 04:33:44;;;;;;;3.70;3.40;;;;;22.00;99395.00;;;;2078762;28;20296;-54
2021/10/30 04:35:47;;;;;;;3.73;3.43;;;;;22.00;99394.00;;;;2078903;28;20670;-53
2021/10/30 04:36:48;;;;;;;4.15;3.65;;;;;22.00;99402.00;;;;2079347;28;20221;-54
2021/10/30 04:37:48;;;;;;;3.97;3.67;;;;;21.90;99403.00;;;;2079361;28;20248;-54
2021/10/30 04:38:49;;;;;;;3.77;3.40;;;;;22.00;99400.00;;;;2076891;28;20951;-54
2021/10/30 04:39:50;;;;;;;4.13;3.83;;;;;22.00;99393.00;;;;2078987;28;20674;-55
2021/10/30 04:40:50;;;;;;;4.20;3.50;;;;;22.00;99388.00;;;;2078635;28;20213;-54
2021/10/30 04:41:50;;;;;;;4.57;4.17;;;;;22.00;99388.00;;;;2079389;28;20292;-55
2021/10/30 04:42:51;;;;;;;3.90;3.60;;;;;21.90;99388.00;;;;2078767;28;20235;-52
2021/10/30 04:43:51;;;;;;;3.80;3.50;;;;;22.00;99400.00;;;;2078391;28;20214;-54
2021/10/30 04:44:51;;;;;;;4.33;3.93;;;;;22.00;99395.00;;;;2070934;28;20207;-54
2021/10/30 04:45:52;;;;;;;4.13;3.73;;;;;22.00;99399.00;;;;2070530;28;20217;-54
2021/10/30 04:46:52;;;;;;;4.00;3.67;;;;;21.90;99396.00;;;;2071265;28;20690;-51
2021/10/30 04:47:52;;;;;;;4.03;3.73;;;;;21.90;99396.00;;;;2070889;28;20637;-53
2021/10/30 04:48:53;;;;;;;4.10;3.80;;;;;21.90;99388.00;;;;2069020;28;20636;-53
2021/10/30 04:49:53;;;;;;;3.90;3.60;;;;;22.00;99392.00;;;;2069666;28;20336;-54
2021/10/30 04:50:53;;;;;;;4.00;3.47;;;;;22.00;99396.00;;;;2069837;28;20225;-53
2021/10/30 04:51:54;;;;;;;3.80;3.50;;;;;21.90;99394.00;;;;2070603;28;20310;-52
2021/10/30 04:52:55;;;;;;;4.20;3.90;;;;;21.90;99394.00;;;;2070819;28;20275;-51
2021/10/30 04:53:55;;;;;;;3.80;3.50;;;;;21.90;99389.00;;;;2071118;28;20603;-51
2021/10/30 04:54:55;;;;;;;4.07;3.73;;;;;21.90;99384.00;;;;2071892;28;20210;-55
2021/10/30 04:55:56;;;;;;;4.20;3.53;;;;;21.90;99384.00;;;;2076162;28;20205;-54
2021/10/30 04:56:56;;;;;;;4.27;3.87;;;;;21.90;99378.00;;;;2073271;28;20198;-53
2021/10/30 04:57:56;;;;;;;3.90;3.50;;;;;21.90;99376.00;;;;2072714;28;20260;-55
2021/10/30 04:58:57;;;;;;;3.97;3.67;;;;;21.90;99380.00;;;;2069767;28;20728;-53
2021/10/30 04:59:57;;;;;;;4.03;3.73;;;;;21.90;99365.00;;;;2069785;28;20710;-54
2021/10/30 05:00:58;;;;;;;3.90;3.53;;;;;21.90;99361.00;;;;2071070;28;20218;-55
2021/10/30 05:01:59;;;;;;;3.80;3.50;;;;;21.90;99373.00;;;;2070530;28;20713;-54